createdAt,value
2023-05-22T00:00:28.620Z,13.77
2023-05-22T00:02:55.736Z,13.74
2023-05-22T00:05:23.017Z,13.72
2023-05-22T00:07:53.407Z,13.67
2023-05-22T00:10:20.533Z,13.63
2023-05-22T00:12:47.548Z,13.58
2023-05-22T00:15:16.086Z,13.54
2023-05-22T00:17:44.626Z,13.51
2023-05-22T00:20:12.155Z,13.45
2023-05-22T00:22:39.229Z,13.44
2023-05-22T00:25:07.016Z,13.42
2023-05-22T00:27:34.180Z,13.39
2023-05-22T00:30:01.631Z,13.36
2023-05-22T00:32:28.937Z,13.35
2023-05-22T00:34:56.075Z,13.35
2023-05-22T00:37:23.362Z,13.35
2023-05-22T00:39:50.438Z,13.32
2023-05-22T00:42:18.482Z,13.30
2023-05-22T00:44:46.197Z,13.25
2023-05-22T00:47:13.242Z,13.22
2023-05-22T00:49:41.205Z,13.19
2023-05-22T00:52:09.210Z,13.15
2023-05-22T00:54:36.231Z,13.13
2023-05-22T00:57:04.878Z,13.11
2023-05-22T00:59:31.952Z,13.09
2023-05-22T01:01:58.992Z,13.06
2023-05-22T01:04:26.213Z,13.04
2023-05-22T01:06:53.895Z,12.99
2023-05-22T01:09:20.930Z,13.00
2023-05-22T01:11:55.956Z,12.99
2023-05-22T01:14:39.278Z,12.99
2023-05-22T01:17:38.313Z,12.99
2023-05-22T01:20:14.547Z,12.98
2023-05-22T01:22:58.759Z,12.93
2023-05-22T01:25:35.382Z,12.89
2023-05-22T01:28:24.038Z,12.85
2023-05-22T01:31:08.372Z,12.80
2023-05-22T01:33:58.193Z,12.78
2023-05-22T01:36:28.482Z,12.75
2023-05-22T01:38:55.760Z,12.75
2023-05-22T01:41:22.920Z,12.71
2023-05-22T01:43:49.955Z,12.67
2023-05-22T01:46:17.063Z,12.66
2023-05-22T01:48:44.173Z,12.65
2023-05-22T01:51:35.433Z,12.65
2023-05-22T01:54:15.641Z,12.64
2023-05-22T01:56:55.095Z,12.64
2023-05-22T01:59:35.416Z,12.64
2023-05-22T02:02:05.691Z,12.65
2023-05-22T02:04:33.029Z,12.67
2023-05-22T02:07:02.803Z,12.69
2023-05-22T02:09:31.323Z,12.71
2023-05-22T02:11:59.042Z,12.71
2023-05-22T02:14:27.929Z,12.72
2023-05-22T02:16:55.130Z,12.73
2023-05-22T02:19:22.319Z,12.73
2023-05-22T02:21:49.483Z,12.74
2023-05-22T02:24:16.574Z,12.75
2023-05-22T02:26:43.663Z,12.77
2023-05-22T02:29:10.976Z,12.81
2023-05-22T02:31:38.738Z,12.86
2023-05-22T02:34:06.801Z,12.91
2023-05-22T02:36:33.852Z,12.97
2023-05-22T02:39:00.969Z,13.02
2023-05-22T02:41:28.106Z,13.06
2023-05-22T02:43:55.396Z,13.10
2023-05-22T02:46:22.497Z,13.14
2023-05-22T02:48:51.004Z,13.18
2023-05-22T02:51:18.770Z,13.22
2023-05-22T02:53:45.842Z,13.27
2023-05-22T02:56:12.874Z,13.33
2023-05-22T02:58:39.924Z,13.38
2023-05-22T03:01:09.288Z,13.43
2023-05-22T03:03:36.669Z,13.46
2023-05-22T03:06:04.531Z,13.51
2023-05-22T03:08:33.049Z,13.54
2023-05-22T03:11:01.667Z,13.59
2023-05-22T03:13:28.783Z,13.62
2023-05-22T03:15:55.996Z,13.66
2023-05-22T03:18:25.316Z,13.69
2023-05-22T03:20:53.721Z,13.74
2023-05-22T03:23:25.324Z,13.78
2023-05-22T03:25:52.574Z,13.84
2023-05-22T03:28:19.982Z,13.89
2023-05-22T03:30:47.783Z,13.95
2023-05-22T03:33:19.986Z,14.04
2023-05-22T03:35:47.214Z,14.13
2023-05-22T03:38:14.523Z,14.22
2023-05-22T03:40:41.876Z,14.31
2023-05-22T03:43:09.543Z,14.40
2023-05-22T03:45:36.751Z,14.51
2023-05-22T03:48:04.292Z,14.63
2023-05-22T03:50:31.392Z,14.75
2023-05-22T03:52:58.475Z,14.89
2023-05-22T03:55:26.756Z,15.01
2023-05-22T03:57:53.819Z,15.12
2023-05-22T04:00:20.934Z,15.21
2023-05-22T04:02:48.233Z,15.31
2023-05-22T04:05:15.890Z,15.40
2023-05-22T04:07:44.404Z,15.49
2023-05-22T04:10:13.116Z,15.58
2023-05-22T04:12:40.460Z,15.66
2023-05-22T04:15:09.336Z,15.75
2023-05-22T04:17:40.006Z,15.84
2023-05-22T04:20:08.787Z,15.96
2023-05-22T04:22:35.903Z,16.07
2023-05-22T04:25:03.473Z,16.19
2023-05-22T04:27:31.046Z,16.32
2023-05-22T04:30:00.234Z,16.45
2023-05-22T04:32:27.715Z,16.58
2023-05-22T04:34:54.733Z,16.71
2023-05-22T04:37:21.824Z,16.82
2023-05-22T04:39:53.165Z,16.94
2023-05-22T04:42:20.733Z,17.06
2023-05-22T04:44:48.499Z,17.18
2023-05-22T04:47:15.584Z,17.32
2023-05-22T04:49:43.888Z,17.46
2023-05-22T04:52:11.857Z,17.61
2023-05-22T04:54:39.107Z,17.74
2023-05-22T04:57:06.337Z,17.87
2023-05-22T04:59:38.194Z,18.00
2023-05-22T05:02:05.970Z,18.13
2023-05-22T05:04:33.431Z,18.25
2023-05-22T05:07:00.491Z,18.35
2023-05-22T05:09:27.639Z,18.45
2023-05-22T05:11:55.189Z,18.56
2023-05-22T05:14:22.189Z,18.65
2023-05-22T05:16:52.060Z,18.74
2023-05-22T05:19:22.887Z,18.82
2023-05-22T05:21:50.028Z,18.93
2023-05-22T05:24:20.043Z,19.02
2023-05-22T05:26:48.339Z,19.13
2023-05-22T05:29:17.292Z,19.21
2023-05-22T05:32:07.672Z,19.31
2023-05-22T05:34:47.513Z,19.43
2023-05-22T05:37:24.864Z,19.57
2023-05-22T05:39:53.114Z,19.65
2023-05-22T05:42:20.701Z,19.69
2023-05-22T05:44:50.342Z,19.74
2023-05-22T05:47:18.733Z,19.80
2023-05-22T05:49:45.911Z,19.91
2023-05-22T05:52:14.992Z,20.01
2023-05-22T05:54:46.779Z,20.12
2023-05-22T05:57:16.685Z,20.23
2023-05-22T05:59:43.737Z,20.33
2023-05-22T06:02:29.175Z,20.41
2023-05-22T06:04:59.272Z,20.46
2023-05-22T06:07:28.760Z,20.56
2023-05-22T06:09:55.982Z,20.69
2023-05-22T06:12:38.714Z,20.81
2023-05-22T06:15:07.601Z,20.92
2023-05-22T06:17:35.308Z,21.04
2023-05-22T06:20:02.333Z,21.19
2023-05-22T06:22:30.020Z,21.28
2023-05-22T06:24:58.506Z,21.41
2023-05-22T06:27:27.981Z,21.53
2023-05-22T06:29:56.421Z,21.63
2023-05-22T06:32:24.879Z,21.73
2023-05-22T06:34:52.395Z,21.77
2023-05-22T06:37:20.046Z,21.84
2023-05-22T06:39:47.799Z,21.93
2023-05-22T06:42:33.968Z,22.00
2023-05-22T06:45:20.099Z,22.08
2023-05-22T06:48:12.080Z,22.18
2023-05-22T06:50:46.706Z,22.24
2023-05-22T06:53:14.026Z,22.33
2023-05-22T06:55:42.116Z,22.45
2023-05-22T06:58:12.919Z,22.52
2023-05-22T07:00:40.207Z,22.62
2023-05-22T07:03:15.140Z,22.74
2023-05-22T07:06:06.374Z,22.84
2023-05-22T07:08:34.183Z,22.83
2023-05-22T07:11:02.312Z,22.82
2023-05-22T07:13:32.562Z,22.85
2023-05-22T07:15:59.773Z,22.88
2023-05-22T07:18:27.462Z,22.95
2023-05-22T07:20:54.869Z,23.07
2023-05-22T07:23:24.422Z,23.21
2023-05-22T07:25:53.352Z,23.35
2023-05-22T07:28:21.706Z,23.46
2023-05-22T07:30:53.905Z,23.55
2023-05-22T07:33:21.168Z,23.58
2023-05-22T07:35:48.842Z,23.53
2023-05-22T07:38:16.384Z,23.55
2023-05-22T07:40:48.514Z,23.68
2023-05-22T07:43:15.844Z,23.76
2023-05-22T07:45:44.431Z,23.85
2023-05-22T07:48:12.857Z,23.96
2023-05-22T07:50:40.077Z,23.99
2023-05-22T07:53:07.138Z,23.96
2023-05-22T07:55:37.507Z,24.02
2023-05-22T07:58:05.395Z,24.20
2023-05-22T08:00:36.018Z,24.43
2023-05-22T08:03:04.447Z,24.69
2023-05-22T08:05:33.008Z,24.87
2023-05-22T08:08:00.070Z,24.86
2023-05-22T08:10:41.706Z,24.80
2023-05-22T08:13:16.660Z,24.82
2023-05-22T08:15:43.774Z,24.83
2023-05-22T08:18:12.023Z,24.93
2023-05-22T08:20:39.320Z,25.06
2023-05-22T08:23:06.705Z,25.19
2023-05-22T08:25:36.319Z,25.37
2023-05-22T08:28:03.697Z,25.55
2023-05-22T08:30:31.325Z,25.67
2023-05-22T08:32:58.363Z,25.73
2023-05-22T08:35:25.427Z,25.75
2023-05-22T08:37:53.252Z,25.79
2023-05-22T08:40:20.737Z,25.72
2023-05-22T08:42:48.302Z,25.66
2023-05-22T08:45:16.963Z,25.62
2023-05-22T08:47:44.643Z,25.64
2023-05-22T08:50:11.885Z,25.64
2023-05-22T08:52:51.336Z,25.69
2023-05-22T08:55:19.918Z,25.69
2023-05-22T08:57:46.977Z,25.71
2023-05-22T09:00:15.500Z,25.84
2023-05-22T09:02:42.731Z,25.96
2023-05-22T09:05:10.094Z,25.87
2023-05-22T09:07:38.392Z,25.71
2023-05-22T09:10:07.433Z,25.60
2023-05-22T09:12:34.657Z,25.57
2023-05-22T09:15:10.381Z,25.61
2023-05-22T09:17:41.289Z,25.74
2023-05-22T09:20:10.688Z,25.82
2023-05-22T09:22:38.495Z,25.83
2023-05-22T09:25:07.215Z,25.76
2023-05-22T09:27:34.474Z,25.67
2023-05-22T09:30:01.652Z,25.61
2023-05-22T09:32:31.827Z,25.63
2023-05-22T09:35:05.540Z,25.86
2023-05-22T09:37:36.567Z,26.11
2023-05-22T09:40:08.302Z,26.27
2023-05-22T09:42:35.566Z,26.39
2023-05-22T09:45:06.785Z,26.61
2023-05-22T09:47:36.699Z,26.78
2023-05-22T09:50:06.611Z,26.80
2023-05-22T09:52:34.976Z,26.60
2023-05-22T09:55:09.128Z,26.30
2023-05-22T09:57:45.656Z,26.15
2023-05-22T10:00:16.307Z,26.18
2023-05-22T10:02:46.206Z,26.24
2023-05-22T10:05:23.449Z,26.28
2023-05-22T10:07:56.700Z,26.26
2023-05-22T10:10:25.006Z,26.29
2023-05-22T10:12:56.179Z,26.43
2023-05-22T10:15:23.472Z,26.61
2023-05-22T10:17:50.913Z,26.84
2023-05-22T10:20:18.054Z,27.01
2023-05-22T10:22:45.121Z,26.83
2023-05-22T10:25:12.282Z,26.42
2023-05-22T10:27:39.676Z,26.09
2023-05-22T10:30:25.587Z,25.76
2023-05-22T10:33:18.424Z,25.45
2023-05-22T10:35:58.710Z,25.41
2023-05-22T10:38:31.673Z,25.52
2023-05-22T10:40:58.742Z,25.79
2023-05-22T10:43:25.972Z,26.13
2023-05-22T10:46:02.617Z,26.42
2023-05-22T10:48:30.869Z,26.57
2023-05-22T10:50:59.849Z,26.65
2023-05-22T10:53:28.916Z,26.82
2023-05-22T10:55:57.157Z,27.01
2023-05-22T10:58:29.041Z,27.15
2023-05-22T11:01:16.713Z,27.36
2023-05-22T11:03:57.884Z,27.65
2023-05-22T11:06:34.424Z,27.89
2023-05-22T11:09:31.939Z,27.99
2023-05-22T11:12:18.186Z,28.13
2023-05-22T11:15:08.721Z,28.08
2023-05-22T11:17:39.932Z,27.66
2023-05-22T11:20:22.796Z,27.27
2023-05-22T11:22:52.209Z,26.96
2023-05-22T11:25:20.172Z,26.76
2023-05-22T11:27:47.734Z,26.58
2023-05-22T11:30:15.342Z,26.60
2023-05-22T11:32:44.648Z,26.75
2023-05-22T11:35:22.052Z,26.90
2023-05-22T11:37:50.337Z,27.12
2023-05-22T11:40:21.742Z,27.24
2023-05-22T11:42:48.881Z,27.22
2023-05-22T11:45:16.534Z,27.02
2023-05-22T11:47:43.908Z,26.84
2023-05-22T11:50:11.971Z,26.93
2023-05-22T11:52:41.297Z,27.16
2023-05-22T11:55:09.318Z,27.41
2023-05-22T11:57:37.868Z,27.46
2023-05-22T12:00:10.962Z,27.27
2023-05-22T12:02:46.876Z,27.04
2023-05-22T12:05:16.167Z,26.77
2023-05-22T12:07:43.773Z,26.55
2023-05-22T12:10:11.515Z,26.33
2023-05-22T12:12:39.259Z,26.19
2023-05-22T12:15:07.499Z,26.18
2023-05-22T12:17:38.905Z,26.33
2023-05-22T12:20:07.441Z,26.52
2023-05-22T12:22:41.199Z,26.62
2023-05-22T12:25:17.349Z,26.73
2023-05-22T12:27:45.917Z,26.87
2023-05-22T12:30:15.568Z,27.02
2023-05-22T12:32:50.841Z,27.20
2023-05-22T12:35:19.533Z,27.40
2023-05-22T12:37:51.523Z,27.61
2023-05-22T12:40:19.233Z,27.67
2023-05-22T12:42:48.003Z,27.56
2023-05-22T12:45:18.013Z,27.46
2023-05-22T12:47:45.980Z,27.44
2023-05-22T12:50:13.695Z,27.41
2023-05-22T12:52:41.308Z,27.34
2023-05-22T12:55:10.512Z,27.21
2023-05-22T12:57:38.059Z,27.15
2023-05-22T13:00:06.676Z,27.18
2023-05-22T13:02:34.331Z,27.31
2023-05-22T13:05:02.008Z,27.39
2023-05-22T13:07:29.771Z,27.47
2023-05-22T13:09:57.311Z,27.58
2023-05-22T13:12:24.970Z,27.70
2023-05-22T13:14:53.763Z,27.70
2023-05-22T13:17:21.447Z,27.71
2023-05-22T13:19:49.190Z,27.74
2023-05-22T13:22:16.957Z,27.75
2023-05-22T13:24:45.114Z,27.64
2023-05-22T13:27:12.718Z,27.53
2023-05-22T13:29:40.240Z,27.54
2023-05-22T13:32:07.783Z,27.53
2023-05-22T13:34:35.538Z,27.51
2023-05-22T13:37:03.705Z,27.59
2023-05-22T13:39:31.279Z,27.78
2023-05-22T13:41:58.858Z,27.91
2023-05-22T13:44:26.678Z,27.99
2023-05-22T13:46:56.350Z,28.12
2023-05-22T13:49:23.960Z,28.17
2023-05-22T13:51:51.752Z,28.12
2023-05-22T13:54:19.325Z,28.07
2023-05-22T13:56:47.045Z,27.97
2023-05-22T13:59:14.596Z,27.87
2023-05-22T14:01:42.555Z,27.85
2023-05-22T14:04:10.260Z,27.94
2023-05-22T14:06:37.954Z,28.12
2023-05-22T14:09:09.598Z,28.35
2023-05-22T14:11:37.283Z,28.56
2023-05-22T14:14:05.002Z,28.89
2023-05-22T14:16:32.609Z,29.33
2023-05-22T14:19:00.712Z,29.70
2023-05-22T14:21:28.285Z,30.04
2023-05-22T14:23:56.011Z,30.44
2023-05-22T14:26:24.515Z,30.75
2023-05-22T14:28:53.113Z,31.09
2023-05-22T14:31:20.630Z,31.54
2023-05-22T14:33:48.317Z,31.96
2023-05-22T14:36:18.014Z,32.38
2023-05-22T14:38:45.689Z,32.82
2023-05-22T14:41:13.449Z,33.16
2023-05-22T14:43:41.088Z,33.28
2023-05-22T14:46:08.763Z,33.40
2023-05-22T14:48:36.347Z,33.51
2023-05-22T14:51:04.059Z,33.78
2023-05-22T14:53:31.564Z,34.22
2023-05-22T14:55:59.229Z,34.44
2023-05-22T14:58:26.909Z,34.48
2023-05-22T15:00:54.468Z,34.46
2023-05-22T15:03:23.793Z,34.32
2023-05-22T15:05:51.412Z,34.31
2023-05-22T15:08:19.436Z,34.38
2023-05-22T15:10:47.531Z,34.51
2023-05-22T15:13:15.167Z,34.45
2023-05-22T15:15:42.690Z,34.32
2023-05-22T15:18:10.810Z,34.39
2023-05-22T15:20:38.512Z,34.39
2023-05-22T15:23:06.185Z,34.52
2023-05-22T15:25:36.793Z,34.77
2023-05-22T15:28:08.126Z,34.84
2023-05-22T15:30:36.654Z,34.70
2023-05-22T15:33:05.024Z,34.53
2023-05-22T15:35:32.787Z,34.35
2023-05-22T15:38:00.517Z,34.42
2023-05-22T15:40:28.095Z,34.70
2023-05-22T15:42:56.159Z,35.18
2023-05-22T15:45:23.769Z,35.55
2023-05-22T15:47:51.883Z,35.65
2023-05-22T15:50:19.490Z,35.68
2023-05-22T15:52:47.011Z,35.57
2023-05-22T15:55:14.579Z,35.15
2023-05-22T15:57:42.157Z,34.76
2023-05-22T16:00:10.389Z,34.59
2023-05-22T16:02:38.010Z,34.29
2023-05-22T16:05:05.845Z,34.17
2023-05-22T16:07:33.389Z,34.24
2023-05-22T16:10:00.952Z,34.09
2023-05-22T16:12:28.710Z,33.84
2023-05-22T16:15:00.316Z,33.68
2023-05-22T16:17:29.650Z,33.52
2023-05-22T16:19:57.316Z,33.42
2023-05-22T16:22:30.362Z,33.32
2023-05-22T16:25:04.574Z,33.37
2023-05-22T16:27:32.944Z,33.34
2023-05-22T16:30:02.886Z,33.31
2023-05-22T16:32:31.692Z,33.29
2023-05-22T16:34:59.207Z,33.29
2023-05-22T16:37:28.900Z,33.32
2023-05-22T16:39:57.038Z,33.37
2023-05-22T16:42:25.581Z,33.25
2023-05-22T16:44:53.228Z,32.92
2023-05-22T16:47:21.541Z,32.61
2023-05-22T16:49:50.072Z,32.38
2023-05-22T16:52:18.264Z,32.19
2023-05-22T16:54:45.851Z,32.06
2023-05-22T16:57:16.256Z,31.82
2023-05-22T16:59:44.522Z,31.46
2023-05-22T17:02:12.209Z,31.02
2023-05-22T17:04:40.802Z,30.62
2023-05-22T17:07:08.346Z,30.20
2023-05-22T17:09:35.995Z,29.71
2023-05-22T17:12:03.648Z,29.14
2023-05-22T17:14:33.336Z,28.46
2023-05-22T17:17:01.072Z,27.93
2023-05-22T17:19:28.631Z,27.58
2023-05-22T17:21:56.936Z,27.30
2023-05-22T17:24:24.911Z,26.91
2023-05-22T17:26:52.595Z,26.48
2023-05-22T17:29:21.879Z,26.06
2023-05-22T17:31:49.522Z,25.67
2023-05-22T17:34:17.175Z,25.33
2023-05-22T17:36:53.318Z,25.02
2023-05-22T17:39:20.950Z,24.72
2023-05-22T17:41:48.525Z,24.46
2023-05-22T17:44:16.310Z,24.23
2023-05-22T17:46:44.043Z,24.02
2023-05-22T17:49:11.886Z,23.81
2023-05-22T17:51:39.436Z,23.62
2023-05-22T17:54:09.452Z,23.44
2023-05-22T17:56:37.070Z,23.29
2023-05-22T17:59:06.846Z,23.14
2023-05-22T18:01:34.899Z,23.02
2023-05-22T18:04:04.792Z,22.92
2023-05-22T18:06:32.791Z,22.83
2023-05-22T18:09:02.375Z,22.74
2023-05-22T18:11:29.954Z,22.65
2023-05-22T18:13:57.510Z,22.58
2023-05-22T18:16:25.563Z,22.51
2023-05-22T18:18:53.317Z,22.43
2023-05-22T18:21:20.953Z,22.35
2023-05-22T18:23:48.981Z,22.29
2023-05-22T18:26:16.610Z,22.21
2023-05-22T18:28:44.330Z,22.16
2023-05-22T18:31:11.975Z,22.08
2023-05-22T18:33:40.305Z,22.00
2023-05-22T18:36:08.580Z,21.91
2023-05-22T18:38:36.499Z,21.83
2023-05-22T18:41:04.347Z,21.74
2023-05-22T18:43:32.076Z,21.66
2023-05-22T18:45:59.754Z,21.57
2023-05-22T18:48:28.476Z,21.48
2023-05-22T18:50:58.037Z,21.38
2023-05-22T18:53:26.294Z,21.30
2023-05-22T18:55:54.249Z,21.21
2023-05-22T18:58:22.264Z,21.15
2023-05-22T19:00:49.902Z,21.07
2023-05-22T19:03:17.958Z,21.00
2023-05-22T19:05:45.478Z,20.93
2023-05-22T19:08:13.594Z,20.86
2023-05-22T19:10:41.976Z,20.77
2023-05-22T19:13:09.858Z,20.69
2023-05-22T19:15:38.635Z,20.63
2023-05-22T19:18:06.218Z,20.59
2023-05-22T19:20:34.265Z,20.56
2023-05-22T19:23:01.979Z,20.54
2023-05-22T19:25:29.690Z,20.56
2023-05-22T19:27:57.771Z,20.57
2023-05-22T19:30:25.344Z,20.57
2023-05-22T19:32:56.067Z,20.56
2023-05-22T19:35:23.702Z,20.55
2023-05-22T19:37:51.343Z,20.55
2023-05-22T19:40:19.014Z,20.54
2023-05-22T19:42:46.669Z,20.53
2023-05-22T19:45:14.252Z,20.53
2023-05-22T19:47:43.502Z,20.51
2023-05-22T19:50:11.762Z,20.48
2023-05-22T19:52:39.396Z,20.45
2023-05-22T19:55:07.204Z,20.43
2023-05-22T19:57:34.841Z,20.39
2023-05-22T20:00:02.736Z,20.34
2023-05-22T20:02:33.781Z,20.29
2023-05-22T20:05:02.186Z,20.26
2023-05-22T20:07:29.775Z,20.23
2023-05-22T20:09:57.635Z,20.18
2023-05-22T20:12:25.361Z,20.14
2023-05-22T20:14:53.068Z,20.07
2023-05-22T20:17:22.814Z,19.96
2023-05-22T20:19:50.410Z,19.83
2023-05-22T20:22:18.935Z,19.72
2023-05-22T20:24:47.442Z,19.63
2023-05-22T20:27:15.065Z,19.58
2023-05-22T20:29:42.670Z,19.37
2023-05-22T20:32:11.028Z,18.95
2023-05-22T20:34:38.624Z,18.81
2023-05-22T20:37:06.856Z,18.70
2023-05-22T20:39:34.628Z,18.66
2023-05-22T20:42:03.083Z,18.62
2023-05-22T20:44:31.868Z,18.57
2023-05-22T20:47:01.094Z,18.50
2023-05-22T20:49:30.044Z,18.45
2023-05-22T20:52:00.235Z,18.38
2023-05-22T20:54:34.617Z,18.32
2023-05-22T20:57:02.438Z,18.30
2023-05-22T20:59:30.089Z,18.27
2023-05-22T21:01:58.121Z,18.24
2023-05-22T21:04:26.295Z,18.22
2023-05-22T21:06:54.635Z,18.21
2023-05-22T21:09:22.309Z,18.20
2023-05-22T21:11:50.438Z,18.19
2023-05-22T21:14:18.049Z,18.18
2023-05-22T21:16:45.667Z,18.18
2023-05-22T21:19:13.301Z,18.19
2023-05-22T21:21:42.707Z,18.19
2023-05-22T21:24:10.488Z,18.20
2023-05-22T21:26:38.150Z,18.21
2023-05-22T21:29:05.992Z,18.22
2023-05-22T21:31:35.522Z,18.21
2023-05-22T21:34:03.514Z,18.20
2023-05-22T21:36:32.174Z,18.19
2023-05-22T21:39:00.906Z,18.18
2023-05-22T21:41:28.638Z,18.19
2023-05-22T21:43:57.216Z,18.16
2023-05-22T21:46:25.421Z,18.15
2023-05-22T21:48:54.361Z,18.14
2023-05-22T21:51:21.924Z,18.13
2023-05-22T21:53:49.476Z,18.11
2023-05-22T21:56:17.416Z,18.09
2023-05-22T21:58:44.995Z,18.07
2023-05-22T22:01:12.499Z,18.06
2023-05-22T22:03:40.290Z,18.05
2023-05-22T22:06:08.236Z,18.08
2023-05-22T22:08:35.966Z,18.09
2023-05-22T22:11:05.763Z,18.11
2023-05-22T22:13:33.327Z,18.12
2023-05-22T22:16:01.026Z,18.10
2023-05-22T22:18:32.493Z,18.10
2023-05-22T22:21:02.557Z,18.09
2023-05-22T22:23:30.348Z,18.03
2023-05-22T22:25:57.945Z,17.99
2023-05-22T22:28:25.696Z,17.95
2023-05-22T22:30:55.351Z,17.91
2023-05-22T22:33:23.119Z,17.87
2023-05-22T22:35:51.550Z,17.83
2023-05-22T22:38:21.790Z,17.78
2023-05-22T22:40:49.328Z,17.74
2023-05-22T22:43:16.913Z,17.72
2023-05-22T22:45:44.509Z,17.68
2023-05-22T22:48:12.462Z,17.65
2023-05-22T22:50:40.275Z,17.60
2023-05-22T22:53:08.096Z,17.57
2023-05-22T22:55:35.778Z,17.55
2023-05-22T22:58:03.444Z,17.53
2023-05-22T23:00:31.811Z,17.51
2023-05-22T23:02:59.608Z,17.50
2023-05-22T23:05:27.213Z,17.51
2023-05-22T23:07:54.858Z,17.51
2023-05-22T23:10:22.530Z,17.52
2023-05-22T23:12:50.390Z,17.51
2023-05-22T23:15:18.139Z,17.53
2023-05-22T23:17:45.737Z,17.54
2023-05-22T23:20:13.561Z,17.53
2023-05-22T23:22:41.196Z,17.52
2023-05-22T23:25:09.188Z,17.51
2023-05-22T23:27:37.466Z,17.47
2023-05-22T23:30:06.526Z,17.42
2023-05-22T23:32:34.434Z,17.35
2023-05-22T23:35:04.044Z,17.27
2023-05-22T23:37:31.605Z,17.18
2023-05-22T23:40:00.254Z,17.09
2023-05-22T23:42:27.907Z,16.99
2023-05-22T23:44:55.692Z,16.91
2023-05-22T23:47:23.313Z,16.84
2023-05-22T23:49:51.851Z,16.78
2023-05-22T23:52:19.395Z,16.72
2023-05-22T23:54:47.040Z,16.66
2023-05-22T23:57:14.919Z,16.60
2023-05-22T23:59:43.833Z,16.53
